Time;durP1;ratioP1;P1;durP2;ratioP2;P2;SDS_P1;SDS_P2;PMS_P1;PMS_P2;Temp;Humidity;BMP_temperature;BMP_pressure;BME280_temperature;BME280_humidity;BME280_pressure;Samples;Min_cycle;Max_cycle;Signal;HPM_P1;HPM_P2
2021/03/03 00:01:29;;;;;;;23.53;19.87;;;3.20;99.90;;;4.20;78.00;99261.22;5205169;28;20231;-61
2021/03/03 00:04:01;;;;;;;25.40;19.70;;;3.10;99.90;;;4.17;77.77;99255.84;5204592;28;20216;-61
2021/03/03 00:06:33;;;;;;;23.13;19.20;;;3.10;99.90;;;4.10;77.50;99261.03;5205323;28;20223;-61
2021/03/03 00:09:06;;;;;;;24.70;19.50;;;3.10;99.90;;;4.02;77.70;99251.00;5204859;28;20242;-60
2021/03/03 00:11:38;;;;;;;24.87;19.77;;;3.10;99.90;;;4.01;77.59;99259.31;5205111;28;20216;-61
2021/03/03 00:14:10;;;;;;;24.17;20.43;;;3.00;99.90;;;4.01;77.34;99253.38;5204363;28;20212;-62
2021/03/03 00:16:43;;;;;;;23.53;19.03;;;3.00;99.90;;;3.97;77.54;99251.25;5204739;28;20200;-61
2021/03/03 00:19:15;;;;;;;22.40;19.30;;;2.90;99.90;;;3.95;76.92;99255.25;5205071;28;20222;-62
2021/03/03 00:21:47;;;;;;;24.70;19.90;;;2.80;99.90;;;3.74;77.29;99251.34;5204807;28;20292;-61
2021/03/03 00:24:19;;;;;;;25.67;19.40;;;2.70;99.90;;;3.60;77.44;99247.34;5204315;28;20223;-61
2021/03/03 00:26:51;;;;;;;23.57;19.13;;;2.60;99.90;;;3.53;77.69;99250.88;5207703;28;20357;-62
2021/03/03 00:29:23;;;;;;;22.80;18.50;;;2.50;99.90;;;3.49;77.24;99243.72;5209155;28;20226;-61
2021/03/03 00:31:56;;;;;;;25.90;19.70;;;2.40;99.90;;;3.42;77.98;99232.78;5209241;28;20207;-61
2021/03/03 00:34:29;;;;;;;27.60;21.13;;;2.40;99.90;;;3.44;78.16;99244.84;5208621;28;20225;-61
2021/03/03 00:37:01;;;;;;;22.03;19.13;;;2.40;99.90;;;3.43;78.60;99243.03;5208543;28;20205;-60
2021/03/03 00:39:33;;;;;;;25.13;20.43;;;2.50;99.90;;;3.50;78.80;99245.50;5208463;28;20210;-61
2021/03/03 00:42:06;;;;;;;24.10;19.97;;;2.50;99.90;;;3.51;79.32;99249.81;5209250;28;20208;-62
2021/03/03 00:44:38;;;;;;;24.20;20.37;;;2.60;99.90;;;3.52;78.13;99243.13;5208355;28;20200;-61
2021/03/03 00:47:11;;;;;;;25.00;21.50;;;2.50;99.90;;;3.50;77.89;99237.03;5208493;28;20200;-62
2021/03/03 00:49:43;;;;;;;24.67;20.23;;;2.50;99.90;;;3.55;77.96;99241.84;5208718;28;20723;-61
2021/03/03 00:52:15;;;;;;;24.60;20.37;;;2.60;99.90;;;3.52;78.25;99259.22;5209121;28;20492;-61
2021/03/03 00:54:47;;;;;;;24.10;19.73;;;2.60;99.90;;;3.58;78.23;99254.78;5207855;28;20199;-62
2021/03/03 00:57:19;;;;;;;25.73;20.67;;;2.60;99.90;;;3.54;77.96;99251.78;5208392;28;20658;-61
2021/03/03 00:59:51;;;;;;;22.23;18.63;;;2.50;99.90;;;3.46;77.40;99253.47;5208591;28;20251;-61
2021/03/03 01:02:24;;;;;;;27.20;20.70;;;2.40;99.90;;;3.41;77.82;99254.63;5208308;28;20197;-61
2021/03/03 01:04:56;;;;;;;23.53;19.73;;;2.30;99.90;;;3.36;78.41;99261.72;5208340;28;20214;-61
2021/03/03 01:07:28;;;;;;;22.97;18.93;;;2.40;99.90;;;3.36;78.29;99260.81;5208274;28;20670;-61
2021/03/03 01:10:00;;;;;;;26.73;21.43;;;2.40;99.90;;;3.35;78.48;99248.94;5207726;28;20220;-61
2021/03/03 01:12:32;;;;;;;26.00;20.07;;;2.30;99.90;;;3.32;78.43;99251.09;5208301;28;20194;-60
2021/03/03 01:15:06;;;;;;;24.33;19.33;;;2.30;99.90;;;3.28;78.13;99254.03;5207560;28;20194;-61
2021/03/03 01:17:39;;;;;;;23.97;20.07;;;2.30;99.90;;;3.27;77.89;99254.78;5207698;28;20208;-61
2021/03/03 01:20:12;;;;;;;25.23;20.90;;;2.20;99.90;;;3.23;77.39;99247.59;5208256;28;20252;-61
2021/03/03 01:22:44;;;;;;;26.17;20.77;;;2.20;99.90;;;3.21;77.83;99249.06;5207685;28;20213;-61
2021/03/03 01:25:16;;;;;;;25.07;20.00;;;2.20;99.90;;;3.18;77.55;99257.22;5207966;28;20208;-61
2021/03/03 01:27:48;;;;;;;24.50;20.37;;;2.10;99.90;;;3.21;78.22;99249.06;5207980;28;20621;-61
2021/03/03 01:30:21;;;;;;;28.53;22.33;;;2.10;99.90;;;3.13;78.55;99241.56;5207943;28;20318;-62
2021/03/03 01:32:54;;;;;;;24.83;20.07;;;2.10;99.90;;;3.08;79.14;99244.31;5207621;28;20190;-61
2021/03/03 01:35:26;;;;;;;25.60;20.90;;;2.10;99.90;;;3.02;78.22;99247.06;5207923;28;20194;-62
2021/03/03 01:37:58;;;;;;;28.80;21.20;;;2.00;99.90;;;3.09;78.31;99234.38;5206892;28;20205;-61
2021/03/03 01:40:30;;;;;;;25.53;20.07;;;2.10;99.90;;;2.93;78.74;99252.03;5207935;28;20232;-62
2021/03/03 01:43:02;;;;;;;27.33;22.20;;;1.90;99.90;;;2.87;78.48;99248.84;5207400;28;20232;-61
2021/03/03 01:45:34;;;;;;;25.93;21.13;;;2.00;99.90;;;2.91;78.94;99247.53;5186959;28;20238;-62
2021/03/03 01:48:10;;;;;;;25.67;20.83;;;2.00;99.90;;;2.90;78.95;99239.06;5205437;28;20199;-61
2021/03/03 01:50:42;;;;;;;28.50;20.40;;;1.90;99.90;;;2.74;78.92;99247.31;5207714;28;20316;-61
2021/03/03 01:53:15;;;;;;;26.90;22.43;;;1.80;99.90;;;2.56;79.91;99239.53;5207214;28;20285;-60
2021/03/03 01:55:47;;;;;;;26.80;22.73;;;1.70;99.90;;;2.56;79.65;99237.00;5207092;28;20222;-62
2021/03/03 01:58:19;;;;;;;27.57;20.60;;;1.70;99.90;;;2.62;80.17;99230.09;5207768;28;20206;-62
2021/03/03 02:00:51;;;;;;;30.57;23.10;;;1.80;99.90;;;2.79;79.69;99233.56;5207462;28;20200;-62
2021/03/03 02:03:24;;;;;;;26.10;21.33;;;1.70;99.90;;;2.79;79.48;99236.09;5207017;28;20214;-61
2021/03/03 02:06:03;;;;;;;26.50;21.50;;;1.80;99.90;;;2.72;79.45;99224.44;5207260;28;20578;-61
2021/03/03 02:08:42;;;;;;;25.90;21.43;;;1.80;99.90;;;2.64;80.22;99217.66;5206729;28;20194;-61
2021/03/03 02:11:22;;;;;;;25.13;21.73;;;1.70;99.90;;;2.70;79.66;99216.69;5207547;28;20206;-61
2021/03/03 02:13:59;;;;;;;30.43;23.77;;;1.90;99.90;;;2.70;81.45;99216.69;5206552;28;20194;-61
2021/03/03 02:16:33;;;;;;;31.47;25.40;;;1.90;99.90;;;2.78;82.05;99222.59;5207091;28;20870;-61
2021/03/03 02:19:09;;;;;;;32.57;25.17;;;2.00;99.90;;;2.85;81.75;99211.53;5206687;28;20756;-61
2021/03/03 02:21:47;;;;;;;31.33;25.40;;;2.10;99.90;;;2.83;81.87;99207.91;5207403;28;20213;-61
2021/03/03 02:24:23;;;;;;;29.73;24.90;;;2.10;99.90;;;2.85;81.88;99206.47;5206217;28;20264;-61
2021/03/03 02:26:58;;;;;;;36.27;26.47;;;2.10;99.90;;;2.93;82.36;99205.69;5206680;28;20202;-61
2021/03/03 02:29:31;;;;;;;33.27;26.43;;;2.20;99.90;;;3.00;82.33;99208.13;5206600;28;20227;-61
2021/03/03 02:32:03;;;;;;;33.70;24.60;;;2.20;99.90;;;3.11;80.98;99207.66;5206881;28;20213;-61
2021/03/03 02:34:36;;;;;;;27.13;22.20;;;2.20;99.90;;;3.26;78.80;99221.03;5206326;28;20576;-61
2021/03/03 02:37:09;;;;;;;23.93;20.90;;;2.10;99.90;;;3.26;77.48;99218.53;5206513;28;20205;-61
2021/03/03 02:39:41;;;;;;;23.87;20.03;;;2.00;99.90;;;3.19;77.52;99217.69;5206286;28;20226;-61
2021/03/03 02:42:15;;;;;;;25.27;21.00;;;1.90;99.90;;;3.08;78.03;99207.31;5206820;28;20198;-61
2021/03/03 02:44:49;;;;;;;27.47;21.03;;;1.90;99.90;;;3.00;78.43;99225.78;5206262;28;20221;-61
2021/03/03 02:47:21;;;;;;;27.30;21.63;;;1.90;99.90;;;2.82;78.41;99227.22;5206162;28;20202;-61
2021/03/03 02:49:53;;;;;;;24.90;21.63;;;1.90;99.90;;;2.73;78.81;99216.13;5205431;28;20709;-61
2021/03/03 02:52:27;;;;;;;28.83;22.60;;;1.90;99.90;;;2.67;79.67;99216.38;5206687;28;20225;-62
2021/03/03 02:54:59;;;;;;;28.00;22.07;;;1.80;99.90;;;2.69;80.09;99212.38;5205934;28;20207;-61
2021/03/03 02:57:32;;;;;;;27.93;22.73;;;1.80;99.90;;;2.71;79.89;99221.00;5206417;28;20311;-61
2021/03/03 03:00:06;;;;;;;27.40;22.70;;;1.90;99.90;;;2.68;79.79;99218.16;5205700;28;20584;-61
2021/03/03 03:02:41;;;;;;;25.43;21.77;;;1.80;99.90;;;2.68;79.66;99213.09;5206559;28;20198;-61
2021/03/03 03:05:16;;;;;;;31.33;21.90;;;1.80;99.90;;;2.82;79.04;99206.13;5205938;28;20232;-61
2021/03/03 03:07:52;;;;;;;28.70;22.07;;;1.70;99.90;;;2.83;79.00;99202.88;5206163;28;20205;-61
2021/03/03 03:10:24;;;;;;;27.33;21.20;;;1.60;99.90;;;2.79;79.50;99201.66;5206119;28;20227;-61
2021/03/03 03:12:59;;;;;;;26.63;20.93;;;1.70;99.90;;;2.73;79.05;99190.88;5205677;28;20196;-60
2021/03/03 03:15:32;;;;;;;26.73;21.67;;;1.70;99.90;;;2.73;79.04;99195.06;5205470;28;20190;-62
2021/03/03 03:18:08;;;;;;;25.83;21.17;;;1.60;99.90;;;2.65;78.97;99192.56;5206041;28;20206;-61
2021/03/03 03:20:42;;;;;;;25.33;21.13;;;1.60;99.90;;;2.71;79.71;99194.88;5205534;28;20724;-61
2021/03/03 03:23:18;;;;;;;29.30;22.50;;;1.60;99.90;;;2.71;79.29;99203.31;5205444;28;20226;-62
2021/03/03 03:25:52;;;;;;;26.83;22.27;;;1.60;99.90;;;2.55;79.84;99215.03;5205641;28;20217;-61
2021/03/03 03:28:26;;;;;;;31.30;22.33;;;1.60;99.90;;;2.55;79.75;99217.56;5205741;28;20200;-61
2021/03/03 03:30:58;;;;;;;28.37;21.90;;;1.50;99.90;;;2.56;80.06;99214.28;5205722;28;20205;-61
2021/03/03 03:33:31;;;;;;;26.00;21.83;;;1.60;99.90;;;2.56;80.89;99214.28;5204961;28;20612;-62
2021/03/03 03:36:05;;;;;;;29.90;23.83;;;1.70;99.90;;;2.54;79.97;99223.31;5205571;28;20204;-61
2021/03/03 03:38:37;;;;;;;28.03;22.33;;;1.60;99.90;;;2.56;80.70;99231.06;5205418;28;20202;-61
2021/03/03 03:41:10;;;;;;;26.37;23.43;;;1.60;99.90;;;2.55;80.41;99236.81;5205315;28;20195;-62
2021/03/03 03:43:44;;;;;;;28.57;22.97;;;1.70;99.90;;;2.51;80.76;99235.59;5205219;28;20423;-61
2021/03/03 03:46:16;;;;;;;31.53;23.80;;;1.60;99.90;;;2.47;80.41;99230.94;5204800;28;20284;-61
2021/03/03 03:48:49;;;;;;;29.93;22.57;;;1.60;99.90;;;2.30;80.36;99221.50;5205601;28;20226;-62
2021/03/03 03:51:22;;;;;;;28.23;23.13;;;1.40;99.90;;;2.29;80.50;99216.28;5205313;28;20199;-61
2021/03/03 03:53:54;;;;;;;29.00;23.57;;;1.40;99.90;;;2.29;80.82;99214.69;5205043;28;20200;-62
2021/03/03 03:56:26;;;;;;;33.00;25.40;;;1.50;99.90;;;2.33;81.96;99226.00;5205119;28;20200;-61
2021/03/03 03:58:59;;;;;;;29.57;23.60;;;1.50;99.90;;;2.51;81.75;99228.03;5205290;28;20708;-62
2021/03/03 04:01:31;;;;;;;34.40;24.27;;;1.60;99.90;;;2.45;81.43;99228.25;5205569;28;20547;-61
2021/03/03 04:04:04;;;;;;;32.93;24.73;;;1.60;99.90;;;2.30;81.82;99235.75;5205040;28;20726;-61
2021/03/03 04:06:36;;;;;;;29.70;24.03;;;1.50;99.90;;;2.31;81.95;99232.50;5205131;28;20201;-62
2021/03/03 04:09:08;;;;;;;31.43;24.93;;;1.50;99.90;;;2.38;81.41;99229.94;5204835;28;20226;-62
2021/03/03 04:11:40;;;;;;;32.07;25.07;;;1.50;99.90;;;2.28;81.89;99219.53;5205117;28;20203;-61
2021/03/03 04:14:12;;;;;;;30.53;24.47;;;1.50;99.90;;;2.19;82.57;99220.31;5205084;28;20193;-59
2021/03/03 04:16:44;;;;;;;32.60;25.03;;;1.50;99.90;;;2.21;82.93;99226.44;5204559;28;20198;-61
2021/03/03 04:19:17;;;;;;;35.57;26.13;;;1.50;99.90;;;2.39;83.20;99222.53;5204680;28;20783;-61
2021/03/03 04:21:49;;;;;;;30.43;23.00;;;1.60;99.90;;;2.38;82.62;99219.84;5205191;28;20297;-59
2021/03/03 04:24:21;;;;;;;30.47;24.50;;;1.60;99.90;;;2.31;83.83;99230.88;5204593;28;20225;-60
2021/03/03 04:26:53;;;;;;;32.00;24.10;;;1.60;99.90;;;2.29;83.82;99227.28;5205371;28;20208;-62
2021/03/03 04:29:26;;;;;;;36.57;26.40;;;1.60;99.90;;;2.47;83.49;99223.38;5204777;28;20608;-61
2021/03/03 04:31:58;;;;;;;32.77;25.23;;;1.70;99.90;;;2.44;83.80;99215.47;5204524;28;20291;-61
2021/03/03 04:34:30;;;;;;;33.20;24.93;;;1.70;99.90;;;2.47;83.62;99223.38;5204780;28;20196;-61
2021/03/03 04:37:02;;;;;;;33.37;25.93;;;1.80;99.90;;;2.42;83.98;99232.06;5204912;28;20198;-60
2021/03/03 04:39:34;;;;;;;35.40;26.60;;;1.70;99.90;;;2.57;82.69;99233.72;5204638;28;20246;-61
2021/03/03 04:42:07;;;;;;;33.53;26.07;;;1.80;99.90;;;2.54;82.82;99228.34;5204754;28;20484;-61
2021/03/03 04:44:40;;;;;;;32.07;25.20;;;1.80;99.90;;;2.47;83.93;99229.31;5204609;28;20256;-61
2021/03/03 04:47:12;;;;;;;33.03;26.50;;;1.70;99.90;;;2.44;83.23;99231.50;5204355;28;20732;-61
2021/03/03 04:49:44;;;;;;;34.17;25.33;;;1.80;99.90;;;2.49;83.26;99229.50;5205317;28;20311;-60
2021/03/03 04:52:16;;;;;;;33.37;25.47;;;1.80;99.90;;;2.51;83.36;99233.06;5207370;28;20206;-61
2021/03/03 04:54:48;;;;;;;33.10;26.07;;;1.80;99.90;;;2.54;83.37;99223.31;5206175;28;20199;-60
2021/03/03 04:57:20;;;;;;;33.63;25.80;;;1.80;99.90;;;2.54;83.29;99228.34;5207164;28;20211;-61
2021/03/03 04:59:53;;;;;;;35.53;26.77;;;1.80;99.90;;;2.56;82.90;99223.50;5206835;28;20249;-60
2021/03/03 05:02:26;;;;;;;31.03;25.83;;;1.70;99.90;;;2.57;82.73;99223.63;5205605;28;20685;-60
2021/03/03 05:04:58;;;;;;;33.73;26.73;;;1.80;99.90;;;2.62;82.59;99225.06;5206759;28;20274;-61
2021/03/03 05:07:30;;;;;;;31.80;25.53;;;1.80;99.90;;;2.63;82.06;99219.28;5206834;28;20203;-60
2021/03/03 05:10:02;;;;;;;34.03;26.27;;;1.80;99.90;;;2.62;82.20;99217.47;5206274;28;20219;-61
2021/03/03 05:12:34;;;;;;;34.33;25.93;;;1.80;99.90;;;2.67;82.44;99221.41;5208752;28;20209;-61
2021/03/03 05:15:09;;;;;;;35.80;26.83;;;1.90;99.90;;;2.62;82.25;99220.00;5209521;28;20241;-61
2021/03/03 05:17:41;;;;;;;33.20;26.23;;;1.90;99.90;;;2.66;82.41;99219.63;5210598;28;20211;-61
2021/03/03 05:20:15;;;;;;;35.90;25.77;;;1.90;99.90;;;2.65;82.99;99216.91;5210925;28;20217;-62
2021/03/03 05:22:47;;;;;;;35.43;26.33;;;1.80;99.90;;;2.65;82.63;99225.38;5211202;28;20199;-61
2021/03/03 05:25:19;;;;;;;33.07;24.63;;;1.90;99.90;;;2.70;82.83;99216.69;5210800;28;20221;-60
2021/03/03 05:27:51;;;;;;;33.10;24.93;;;1.90;99.90;;;2.68;82.07;99212.19;5211573;28;20194;-61
2021/03/03 05:30:25;;;;;;;32.77;24.87;;;1.90;99.90;;;2.66;82.13;99213.66;5210564;28;20233;-61
2021/03/03 05:32:58;;;;;;;31.63;25.17;;;1.90;99.90;;;2.70;82.03;99208.22;5209763;28;20194;-61
2021/03/03 05:35:30;;;;;;;31.93;25.87;;;1.90;99.90;;;2.69;82.66;99209.88;5210756;28;20622;-61
2021/03/03 05:38:02;;;;;;;30.87;23.60;;;1.90;99.90;;;2.70;82.48;99206.59;5210440;28;20208;-62
2021/03/03 05:40:34;;;;;;;31.73;25.63;;;1.90;99.90;;;2.69;81.48;99209.88;5206749;28;20224;-61
2021/03/03 05:43:08;;;;;;;31.73;24.07;;;1.80;99.90;;;2.63;81.49;99211.72;5210002;28;20264;-61
2021/03/03 05:45:44;;;;;;;30.67;24.37;;;1.80;99.90;;;2.56;81.82;99198.25;5210390;28;20198;-61
2021/03/03 05:48:26;;;;;;;33.33;24.53;;;1.80;99.90;;;2.56;81.92;99209.25;5210494;28;20209;-61
2021/03/03 05:51:00;;;;;;;32.63;25.00;;;1.80;99.90;;;2.63;82.50;99206.69;5212186;28;20206;-60
2021/03/03 05:53:33;;;;;;;33.73;26.87;;;1.80;99.90;;;2.73;81.75;99205.16;5210983;28;20197;-62
2021/03/03 05:56:07;;;;;;;33.03;25.97;;;1.90;99.90;;;2.54;81.37;99208.16;5212280;28;20196;-61
2021/03/03 05:58:41;;;;;;;35.20;26.20;;;1.70;99.90;;;2.54;81.45;99204.75;5211695;28;20205;-61
2021/03/03 06:01:14;;;;;;;33.20;25.53;;;1.70;99.90;;;2.56;81.61;99204.19;5210887;28;20676;-61
2021/03/03 06:03:48;;;;;;;34.57;25.17;;;1.80;99.90;;;2.55;82.00;99204.94;5211564;28;20226;-61
2021/03/03 06:06:21;;;;;;;35.23;24.87;;;1.80;99.90;;;2.56;82.34;99201.66;5210740;28;20647;-61
2021/03/03 06:08:53;;;;;;;30.20;25.10;;;1.80;99.90;;;2.59;81.99;99202.00;5209282;28;20586;-61
2021/03/03 06:11:25;;;;;;;33.37;25.07;;;1.90;99.90;;;2.71;82.44;99207.50;5209226;28;20212;-61
2021/03/03 06:13:59;;;;;;;34.80;26.83;;;1.90;99.90;;;2.66;81.61;99213.66;5209133;28;20204;-61
2021/03/03 06:16:32;;;;;;;34.93;24.90;;;1.90;99.90;;;2.64;81.54;99208.47;5209019;28;20197;-61
2021/03/03 06:19:05;;;;;;;33.33;24.87;;;1.90;99.90;;;2.63;81.43;99204.16;5209419;28;20281;-61
2021/03/03 06:21:37;;;;;;;35.70;27.03;;;1.90;99.90;;;2.65;81.29;99206.81;5209506;28;20280;-61
2021/03/03 06:24:11;;;;;;;36.23;26.50;;;1.90;99.90;;;2.69;81.22;99204.81;5206987;28;20588;-61
2021/03/03 06:27:00;;;;;;;31.60;25.50;;;1.90;99.90;;;2.75;80.98;99194.50;5208983;28;20194;-61
2021/03/03 06:29:32;;;;;;;35.23;25.70;;;1.90;99.90;;;2.67;80.73;99186.06;5208181;28;20238;-60
2021/03/03 06:32:06;;;;;;;32.07;23.93;;;1.80;99.90;;;2.71;81.65;99190.72;5209126;28;20198;-61
2021/03/03 06:34:50;;;;;;;31.17;25.37;;;1.80;99.90;;;2.79;81.65;99196.59;5208665;28;20558;-60
2021/03/03 06:37:22;;;;;;;32.20;25.37;;;1.90;99.90;;;2.80;80.85;99203.44;5210034;28;20193;-61
2021/03/03 06:40:09;;;;;;;34.13;26.43;;;1.90;99.90;;;2.85;81.28;99201.41;5208942;28;20224;-58
2021/03/03 06:42:41;;;;;;;35.20;26.13;;;2.00;99.90;;;2.93;81.73;99206.56;5208913;28;20747;-61
2021/03/03 06:45:28;;;;;;;32.97;24.97;;;2.10;99.90;;;2.92;80.86;99208.94;5207573;28;20272;-61
2021/03/03 06:48:01;;;;;;;32.23;24.50;;;2.10;99.90;;;2.95;80.68;99206.75;5209657;28;20198;-61
2021/03/03 06:50:35;;;;;;;33.53;26.07;;;2.10;99.90;;;2.98;81.18;99209.59;5209152;28;20218;-61
2021/03/03 06:53:07;;;;;;;33.17;25.03;;;2.20;99.90;;;3.09;80.87;99211.66;5208155;28;20198;-61
2021/03/03 06:55:44;;;;;;;34.20;24.97;;;2.20;99.90;;;3.21;79.95;99218.75;5208392;28;20285;-60
2021/03/03 06:58:27;;;;;;;29.30;24.63;;;2.20;99.90;;;3.24;79.61;99224.13;5207814;28;20207;-61
2021/03/03 07:00:59;;;;;;;29.53;23.90;;;2.10;99.90;;;3.25;79.07;99225.91;5208480;28;20198;-61
2021/03/03 07:03:35;;;;;;;32.23;25.97;;;2.10;99.90;;;3.26;79.05;99232.75;5209061;28;20229;-60
2021/03/03 07:06:08;;;;;;;31.33;23.57;;;2.20;99.90;;;3.29;79.13;99234.00;5209394;28;20217;-60
2021/03/03 07:08:57;;;;;;;32.40;25.13;;;2.20;99.90;;;3.36;78.94;99236.44;5208866;28;20578;-61
2021/03/03 07:11:31;;;;;;;31.40;24.77;;;2.20;99.90;;;3.41;78.65;99239.47;5204295;28;20199;-61
2021/03/03 07:14:16;;;;;;;31.60;25.17;;;2.20;99.90;;;3.26;78.44;99237.81;5207801;28;20192;-60
2021/03/03 07:17:12;;;;;;;29.77;24.30;;;2.10;99.90;;;3.26;77.90;99240.34;5207401;28;20208;-61
2021/03/03 07:19:47;;;;;;;28.80;24.47;;;2.10;99.90;;;3.35;78.21;99231.25;5209130;28;20225;-60
2021/03/03 07:22:31;;;;;;;32.50;26.00;;;2.10;99.90;;;3.32;78.17;99239.38;5207654;28;20202;-60
2021/03/03 07:25:06;;;;;;;32.77;25.40;;;2.20;99.90;;;3.29;77.96;99238.13;5206720;28;20310;-59
2021/03/03 07:27:40;;;;;;;30.67;24.70;;;2.20;99.90;;;3.24;79.56;99234.25;5207737;28;20556;-60
2021/03/03 07:30:14;;;;;;;33.07;26.30;;;2.20;99.90;;;3.25;79.04;99239.44;5207566;28;20705;-60
2021/03/03 07:32:47;;;;;;;32.63;25.53;;;2.30;99.90;;;3.33;79.33;99235.22;5206135;28;20208;-59
2021/03/03 07:35:36;;;;;;;31.60;26.40;;;2.30;99.90;;;3.37;78.69;99235.69;5205399;28;20193;-61
2021/03/03 07:38:12;;;;;;;31.40;25.30;;;2.40;99.90;;;3.39;78.79;99228.28;5205691;28;20248;-58
2021/03/03 07:40:45;;;;;;;33.73;25.93;;;2.40;99.90;;;3.33;79.26;99230.16;5205940;28;20788;-61
2021/03/03 07:43:23;;;;;;;33.13;24.97;;;2.40;99.90;;;3.41;78.77;99234.41;5205864;28;20275;-61
2021/03/03 07:45:55;;;;;;;31.33;25.63;;;2.40;99.90;;;3.53;79.73;99237.34;5207049;28;20220;-59
2021/03/03 07:48:30;;;;;;;33.60;26.50;;;2.60;99.90;;;3.66;79.24;99230.31;5206149;28;20201;-60
2021/03/03 07:51:07;;;;;;;32.33;26.90;;;2.70;99.90;;;3.69;78.72;99232.28;5206766;28;20585;-60
2021/03/03 07:53:41;;;;;;;31.07;26.10;;;2.80;99.90;;;3.79;78.35;99232.50;5206622;28;20280;-60
2021/03/03 07:56:15;;;;;;;31.23;25.73;;;2.80;99.90;;;3.92;77.68;99230.56;5206600;28;20206;-60
2021/03/03 07:58:48;;;;;;;31.10;24.87;;;2.80;99.90;;;3.98;77.14;99238.78;5207070;28;20224;-61
2021/03/03 08:01:31;;;;;;;33.57;25.03;;;2.80;99.90;;;4.00;76.91;99229.69;5206839;28;20197;-60
2021/03/03 08:04:06;;;;;;;35.83;26.20;;;2.90;99.90;;;4.02;77.75;99234.94;5202462;28;20262;-59
2021/03/03 08:06:40;;;;;;;36.07;26.80;;;2.90;99.90;;;4.02;77.50;99227.34;5206795;28;20725;-61
2021/03/03 08:09:18;;;;;;;31.33;25.70;;;3.00;99.90;;;4.04;77.89;99224.22;5206734;28;20241;-60
2021/03/03 08:12:03;;;;;;;32.77;26.33;;;3.10;99.90;;;4.18;78.01;99227.31;5206379;28;20296;-59
2021/03/03 08:14:39;;;;;;;32.13;26.13;;;3.10;99.90;;;4.14;77.47;99226.06;5192584;28;20194;-61
2021/03/03 08:17:11;;;;;;;33.27;26.83;;;3.00;99.90;;;4.24;77.79;99222.88;5205678;28;20194;-61
2021/03/03 08:20:02;;;;;;;31.17;26.67;;;3.10;99.90;;;4.43;77.36;99211.34;5204587;28;20316;-60
2021/03/03 08:22:50;;;;;;;36.57;28.50;;;3.30;99.90;;;4.40;77.42;99210.16;5204616;28;20287;-59
2021/03/03 08:25:46;;;;;;;34.00;27.67;;;3.30;99.90;;;4.48;77.62;99206.78;5205656;28;20218;-60
2021/03/03 08:28:30;;;;;;;31.20;25.73;;;3.40;99.90;;;4.50;77.79;99206.19;5198516;28;20680;-60
2021/03/03 08:31:32;;;;;;;33.43;25.53;;;3.50;99.90;;;4.59;77.53;99210.41;5205882;28;20200;-60
2021/03/03 08:34:09;;;;;;;32.20;26.77;;;3.60;99.90;;;4.73;77.96;99215.25;5185972;28;20199;-61
2021/03/03 08:37:02;;;;;;;32.67;27.47;;;3.70;99.90;;;4.93;77.25;99213.06;5204861;28;20692;-61
2021/03/03 08:39:38;;;;;;;34.70;28.90;;;3.80;99.90;;;5.15;76.64;99211.06;5205652;28;20225;-61
2021/03/03 08:42:34;;;;;;;31.37;26.70;;;3.90;99.90;;;5.18;76.51;99223.16;5204590;28;20189;-61
2021/03/03 08:45:16;;;;;;;33.83;26.73;;;4.00;99.90;;;5.40;75.75;99221.97;5204642;28;20683;-60
2021/03/03 08:48:00;;;;;;;34.90;27.30;;;4.20;99.90;;;5.40;75.60;99213.47;5207892;28;20202;-61
2021/03/03 08:50:46;;;;;;;34.73;27.17;;;4.20;99.90;;;5.39;76.31;99209.16;5204033;28;20222;-59
2021/03/03 08:53:31;;;;;;;33.13;27.00;;;4.30;99.90;;;5.49;76.09;99221.09;5210044;28;20204;-60
2021/03/03 08:56:36;;;;;;;32.83;27.43;;;4.40;99.90;;;5.71;74.91;99216.50;5210042;28;20202;-60
2021/03/03 08:59:09;;;;;;;32.43;26.43;;;4.60;99.90;;;5.78;74.67;99216.34;5209554;28;20224;-60
2021/03/03 09:01:58;;;;;;;34.87;27.27;;;4.60;99.90;;;5.85;74.78;99221.28;5204600;28;20574;-61
2021/03/03 09:04:33;;;;;;;33.67;26.70;;;4.70;99.90;;;5.93;74.02;99219.50;5205933;28;20216;-60
2021/03/03 09:07:08;;;;;;;31.13;26.07;;;4.80;99.90;;;6.02;74.08;99225.47;5210624;28;20253;-60
2021/03/03 09:09:45;;;;;;;34.63;28.97;;;4.90;99.90;;;6.16;73.31;99222.63;5208778;28;20216;-61
2021/03/03 09:12:20;;;;;;;34.70;27.73;;;5.00;99.90;;;6.16;73.47;99226.81;5207371;28;20610;-61
2021/03/03 09:14:55;;;;;;;33.27;26.87;;;5.00;99.90;;;6.22;73.65;99225.75;5207534;28;20206;-61
2021/03/03 09:17:30;;;;;;;33.30;27.00;;;5.10;99.90;;;6.36;73.33;99219.47;5211263;28;20257;-61
2021/03/03 09:20:07;;;;;;;33.17;27.47;;;5.20;99.90;;;6.44;72.57;99213.47;5215849;28;20216;-60
2021/03/03 09:22:41;;;;;;;36.30;28.37;;;5.40;99.90;;;6.20;72.87;99212.00;5224456;28;20284;-61
2021/03/03 09:25:16;;;;;;;30.80;26.17;;;5.30;99.90;;;6.30;73.89;99219.75;5210137;28;20224;-61
2021/03/03 09:27:57;;;;;;;34.57;26.83;;;5.30;99.90;;;6.53;73.54;99213.44;5210171;28;20198;-61
2021/03/03 09:30:39;;;;;;;33.87;27.17;;;5.40;99.90;;;6.67;73.14;99205.47;5210825;28;20225;-61
2021/03/03 09:33:13;;;;;;;35.20;27.23;;;5.60;99.90;;;6.72;73.03;99206.81;5205124;28;20296;-61
2021/03/03 09:35:47;;;;;;;32.70;27.83;;;5.60;99.90;;;6.74;72.78;99219.63;5210044;28;20209;-60
2021/03/03 09:38:19;;;;;;;32.57;26.63;;;5.70;99.90;;;6.88;71.84;99208.22;5210336;28;20298;-59
2021/03/03 09:40:52;;;;;;;32.83;26.90;;;5.70;99.90;;;6.88;72.19;99204.03;5210169;28;20194;-61
2021/03/03 09:43:25;;;;;;;33.80;27.37;;;5.80;99.90;;;7.05;72.48;99199.63;5211065;28;20202;-61
2021/03/03 09:45:57;;;;;;;34.33;28.13;;;6.00;99.90;;;7.11;72.68;99201.06;5208502;28;20217;-59
2021/03/03 09:48:29;;;;;;;32.90;26.43;;;6.10;99.90;;;7.29;72.56;99203.50;5214227;28;20193;-59
2021/03/03 09:51:01;;;;;;;31.03;26.17;;;6.30;99.90;;;7.45;72.41;99192.31;5221508;28;20190;-60
2021/03/03 09:53:34;;;;;;;30.37;26.23;;;6.50;99.90;;;7.69;71.12;99197.84;5208120;28;20190;-60
2021/03/03 09:56:07;;;;;;;34.33;25.97;;;6.60;99.90;;;7.81;71.13;99195.50;5209032;28;20650;-61
2021/03/03 09:58:40;;;;;;;32.53;27.60;;;6.60;99.90;;;7.88;70.88;99197.84;5208519;28;20190;-60
2021/03/03 10:01:12;;;;;;;32.03;26.03;;;6.80;99.90;;;7.98;71.04;99195.34;5208665;28;20202;-58
2021/03/03 10:03:44;;;;;;;34.23;26.57;;;6.90;99.90;;;8.03;70.47;99194.09;5207206;28;20227;-59
2021/03/03 10:06:18;;;;;;;30.57;25.47;;;6.90;99.90;;;8.17;71.01;99190.22;5208127;28;20205;-61
2021/03/03 10:08:50;;;;;;;30.93;25.40;;;7.10;99.90;;;8.28;70.50;99183.53;5206524;28;20233;-61
2021/03/03 10:11:22;;;;;;;31.17;26.47;;;7.20;99.90;;;8.39;70.52;99190.47;5207407;28;20202;-61
2021/03/03 10:14:04;;;;;;;33.47;25.77;;;7.40;99.90;;;8.51;70.77;99189.00;5207664;28;20198;-61
2021/03/03 10:16:36;;;;;;;29.53;24.77;;;7.50;99.90;;;8.67;70.33;99182.66;5207177;28;20194;-61
2021/03/03 10:19:10;;;;;;;30.67;25.73;;;7.70;99.90;;;8.74;69.54;99172.22;5207569;28;20245;-58
2021/03/03 10:21:45;;;;;;;34.10;26.30;;;7.80;99.90;;;8.97;68.78;99182.72;5195580;28;20197;-58
2021/03/03 10:24:19;;;;;;;29.00;25.60;;;7.90;99.90;;;9.12;67.74;99183.13;5205231;28;20243;-58
2021/03/03 10:26:52;;;;;;;28.23;23.97;;;8.10;99.90;;;9.24;67.56;99180.69;5206761;28;20478;-57
2021/03/03 10:29:36;;;;;;;32.70;29.40;;;8.20;99.90;;;9.45;66.09;99174.84;5206005;28;20226;-59
2021/03/03 10:32:10;;;;;;;30.73;27.50;;;8.40;99.90;;;9.46;66.71;99176.59;5204484;28;20613;-58
2021/03/03 10:34:43;;;;;;;27.93;24.97;;;8.40;99.90;;;9.53;66.95;99178.03;5207560;28;20673;-61
2021/03/03 10:37:26;;;;;;;28.00;24.53;;;8.50;99.90;;;9.66;65.81;99180.78;5204447;28;20332;-60
2021/03/03 10:39:58;;;;;;;28.23;24.37;;;8.60;99.90;;;9.84;65.06;99178.88;5206249;28;20226;-60
2021/03/03 10:42:30;;;;;;;28.53;24.43;;;8.80;99.90;;;9.97;64.70;99177.31;5205457;28;20202;-60
2021/03/03 10:45:04;;;;;;;29.83;23.70;;;8.90;99.90;;;10.04;63.94;99189.78;5206020;28;20213;-59
2021/03/03 10:47:45;;;;;;;25.23;22.53;;;9.00;99.90;;;10.13;63.53;99172.66;5205447;28;20204;-61
2021/03/03 10:50:49;;;;;;;24.97;22.23;;;9.10;99.90;;;10.41;61.35;99172.31;5205549;28;20218;-61
2021/03/03 10:53:22;;;;;;;26.90;22.37;;;9.20;99.90;;;10.53;59.73;99165.59;5205591;28;20206;-60